createdAt,value
2018-08-24T00:01:55.892Z,22.00
2018-08-24T00:04:24.711Z,22.00
2018-08-24T00:06:53.619Z,22.00
2018-08-24T00:09:23.839Z,22.00
2018-08-24T00:11:52.723Z,22.00
2018-08-24T00:14:21.555Z,22.00
2018-08-24T00:16:50.655Z,21.90
2018-08-24T00:19:19.470Z,21.90
2018-08-24T00:21:48.523Z,21.80
2018-08-24T00:24:17.363Z,21.90
2018-08-24T00:26:46.265Z,21.90
2018-08-24T00:29:15.056Z,21.80
2018-08-24T00:31:43.938Z,21.80
2018-08-24T00:34:12.744Z,21.80
2018-08-24T00:36:41.655Z,21.80
2018-08-24T00:39:10.595Z,21.80
2018-08-24T00:41:39.708Z,21.70
2018-08-24T00:44:08.537Z,21.60
2018-08-24T00:46:37.396Z,21.60
2018-08-24T00:49:07.528Z,21.50
2018-08-24T00:51:36.370Z,21.50
2018-08-24T00:54:05.195Z,21.60
2018-08-24T00:56:34.059Z,21.50
2018-08-24T00:59:02.916Z,21.50
2018-08-24T01:01:31.779Z,21.50
2018-08-24T01:04:00.602Z,21.50
2018-08-24T01:06:29.555Z,21.50
2018-08-24T01:08:58.374Z,21.50
2018-08-24T01:11:32.878Z,21.50
2018-08-24T01:14:01.683Z,21.50
2018-08-24T01:16:36.274Z,21.40
2018-08-24T01:19:05.099Z,21.40
2018-08-24T01:21:33.964Z,21.40
2018-08-24T01:24:02.833Z,21.40
2018-08-24T01:26:31.721Z,21.40
2018-08-24T01:29:00.534Z,21.30
2018-08-24T01:31:29.395Z,21.30
2018-08-24T01:33:58.228Z,21.30
2018-08-24T01:36:27.184Z,21.30
2018-08-24T01:38:56.067Z,21.30
2018-08-24T01:41:24.950Z,21.20
2018-08-24T01:43:53.772Z,21.20
2018-08-24T01:46:22.645Z,21.20
2018-08-24T01:48:51.455Z,21.20
2018-08-24T01:51:20.295Z,21.10
2018-08-24T01:53:49.119Z,21.10
2018-08-24T01:56:18.022Z,21.10
2018-08-24T01:58:46.822Z,21.10
2018-08-24T02:01:15.699Z,21.00
2018-08-24T02:03:44.511Z,21.00
2018-08-24T02:06:13.370Z,21.00
2018-08-24T02:08:42.174Z,21.00
2018-08-24T02:11:16.812Z,21.00
2018-08-24T02:13:51.207Z,21.00
2018-08-24T02:16:20.074Z,21.00
2018-08-24T02:18:54.521Z,21.00
2018-08-24T02:22:26.847Z,21.00
2018-08-24T02:24:55.668Z,20.90
2018-08-24T02:27:24.526Z,20.90
2018-08-24T02:29:56.405Z,20.90
2018-08-24T02:32:25.671Z,20.80
2018-08-24T02:34:58.103Z,20.80
2018-08-24T02:37:28.043Z,20.80
2018-08-24T02:39:56.900Z,20.80
2018-08-24T02:42:25.744Z,20.80
2018-08-24T02:44:54.568Z,20.80
2018-08-24T02:47:23.451Z,20.80
2018-08-24T02:49:52.283Z,20.70
2018-08-24T02:52:21.122Z,20.70
2018-08-24T02:54:49.950Z,20.70
2018-08-24T02:57:18.837Z,20.70
2018-08-24T02:59:47.618Z,20.70
2018-08-24T03:02:16.463Z,20.70
2018-08-24T03:04:45.293Z,20.70
2018-08-24T03:07:14.200Z,20.70
2018-08-24T03:09:43.106Z,20.60
2018-08-24T03:12:11.974Z,20.60
2018-08-24T03:14:40.799Z,20.60
2018-08-24T03:17:15.197Z,20.60
2018-08-24T03:19:44.022Z,20.60
2018-08-24T03:22:12.872Z,20.60
2018-08-24T03:24:41.710Z,20.60
2018-08-24T03:27:10.653Z,20.60
2018-08-24T03:29:39.448Z,20.60
2018-08-24T03:32:08.276Z,20.60
2018-08-24T03:34:37.162Z,20.50
2018-08-24T03:37:06.535Z,20.60
2018-08-24T03:39:35.401Z,20.50
2018-08-24T03:42:04.303Z,20.40
2018-08-24T03:44:33.140Z,20.40
2018-08-24T03:47:02.083Z,20.40
2018-08-24T03:49:30.907Z,20.40
2018-08-24T03:51:59.763Z,20.40
2018-08-24T03:54:28.592Z,20.40
2018-08-24T03:56:58.636Z,20.30
2018-08-24T03:59:27.600Z,20.30
2018-08-24T04:01:56.690Z,20.30
2018-08-24T04:04:25.564Z,20.30
2018-08-24T04:06:54.431Z,20.30
2018-08-24T04:09:23.251Z,20.30
2018-08-24T04:11:52.119Z,20.30
2018-08-24T04:14:20.970Z,20.30
2018-08-24T04:16:55.383Z,20.30
2018-08-24T04:19:26.426Z,20.30
2018-08-24T04:21:55.686Z,20.20
2018-08-24T04:24:24.536Z,20.20
2018-08-24T04:26:54.191Z,20.20
2018-08-24T04:29:23.557Z,20.20
2018-08-24T04:31:52.544Z,20.30
2018-08-24T04:34:21.394Z,20.30
2018-08-24T04:36:50.325Z,20.30
2018-08-24T04:39:19.277Z,20.30
2018-08-24T04:41:48.140Z,20.30
2018-08-24T04:44:16.962Z,20.30
2018-08-24T04:46:45.972Z,20.30
2018-08-24T04:49:14.766Z,20.30
2018-08-24T04:51:43.687Z,20.30
2018-08-24T04:54:12.528Z,20.30
2018-08-24T04:56:41.525Z,20.30
2018-08-24T04:59:10.394Z,20.30
2018-08-24T05:01:39.267Z,20.30
2018-08-24T05:04:08.127Z,20.30
2018-08-24T05:06:37.067Z,20.30
2018-08-24T05:09:09.463Z,20.30
2018-08-24T05:11:39.443Z,20.40
2018-08-24T05:14:09.023Z,20.30
2018-08-24T05:16:37.907Z,20.40
2018-08-24T05:19:06.820Z,20.50
2018-08-24T05:21:35.659Z,20.60
2018-08-24T05:24:05.191Z,20.60
2018-08-24T05:26:34.087Z,20.60
2018-08-24T05:29:02.991Z,20.60
2018-08-24T05:31:31.823Z,20.60
2018-08-24T05:34:00.666Z,20.70
2018-08-24T05:36:29.523Z,20.80
2018-08-24T05:38:58.408Z,20.80
2018-08-24T05:41:27.381Z,20.80
2018-08-24T05:43:56.248Z,20.80
2018-08-24T05:46:25.865Z,20.90
2018-08-24T05:48:55.077Z,20.90
2018-08-24T05:51:24.009Z,20.90
2018-08-24T05:53:52.831Z,20.90
2018-08-24T05:56:21.660Z,20.90
2018-08-24T05:58:50.515Z,20.90
2018-08-24T06:01:19.415Z,20.90
2018-08-24T06:03:48.657Z,21.00
2018-08-24T06:06:17.662Z,21.00
2018-08-24T06:08:51.047Z,21.00
2018-08-24T06:11:19.895Z,21.00
2018-08-24T06:13:48.695Z,21.10
2018-08-24T06:16:17.603Z,21.20
2018-08-24T06:18:46.520Z,21.20
2018-08-24T06:21:16.575Z,21.30
2018-08-24T06:23:45.511Z,21.30
2018-08-24T06:26:14.508Z,21.40
2018-08-24T06:28:43.344Z,21.40
2018-08-24T06:31:12.174Z,21.50
2018-08-24T06:33:41.951Z,21.50
2018-08-24T06:36:10.835Z,21.50
2018-08-24T06:38:39.696Z,21.60
2018-08-24T06:41:08.516Z,21.60
2018-08-24T06:43:37.416Z,21.60
2018-08-24T06:46:07.884Z,21.70
2018-08-24T06:48:36.824Z,21.70
2018-08-24T06:51:05.763Z,21.80
2018-08-24T06:53:34.633Z,21.80
2018-08-24T06:56:03.581Z,21.80
2018-08-24T06:58:32.426Z,21.90
2018-08-24T07:01:01.260Z,21.90
2018-08-24T07:03:30.089Z,22.00
2018-08-24T07:05:59.032Z,22.00
2018-08-24T07:08:27.868Z,22.10
2018-08-24T07:10:56.717Z,22.20
2018-08-24T07:13:26.347Z,22.20
2018-08-24T07:15:55.547Z,22.40
2018-08-24T07:18:24.458Z,22.40
2018-08-24T07:20:53.288Z,22.40
2018-08-24T07:23:22.154Z,22.50
2018-08-24T07:25:51.330Z,22.50
2018-08-24T07:28:20.284Z,22.60
2018-08-24T07:30:49.194Z,22.60
2018-08-24T07:33:18.061Z,22.70
2018-08-24T07:35:46.971Z,22.80
2018-08-24T07:38:15.884Z,22.80
2018-08-24T07:40:44.722Z,22.90
2018-08-24T07:43:13.549Z,23.00
2018-08-24T07:45:43.124Z,23.10
2018-08-24T07:48:12.083Z,23.20
2018-08-24T07:50:41.048Z,23.20
2018-08-24T07:53:10.544Z,23.30
2018-08-24T07:55:39.508Z,23.40
2018-08-24T07:58:08.363Z,23.50
2018-08-24T08:00:37.914Z,23.50
2018-08-24T08:03:06.985Z,23.60
2018-08-24T08:05:35.919Z,23.70
2018-08-24T08:08:04.858Z,23.80
2018-08-24T08:10:39.038Z,23.80
2018-08-24T08:13:09.454Z,23.90
2018-08-24T08:15:38.460Z,23.90
2018-08-24T08:18:07.429Z,24.00
2018-08-24T08:20:36.868Z,24.20
2018-08-24T08:23:05.947Z,24.20
2018-08-24T08:25:34.966Z,24.20
2018-08-24T08:28:04.465Z,24.30
2018-08-24T08:30:33.516Z,24.40
2018-08-24T08:33:02.423Z,24.40
2018-08-24T08:35:31.909Z,24.50
2018-08-24T08:38:00.852Z,24.50
2018-08-24T08:40:30.089Z,24.60
2018-08-24T08:42:59.151Z,24.60
2018-08-24T08:45:28.143Z,24.70
2018-08-24T08:47:56.936Z,24.80
2018-08-24T08:50:25.847Z,25.00
2018-08-24T08:52:54.776Z,25.20
2018-08-24T08:55:23.751Z,25.20
2018-08-24T08:57:52.599Z,25.20
2018-08-24T09:00:21.514Z,25.30
2018-08-24T09:02:50.405Z,25.30
2018-08-24T09:05:19.308Z,25.40
2018-08-24T09:07:48.163Z,25.30
2018-08-24T09:10:17.078Z,25.50
2018-08-24T09:12:46.097Z,25.70
2018-08-24T09:15:14.983Z,25.70
2018-08-24T09:17:49.347Z,25.80
2018-08-24T09:20:23.912Z,25.80
2018-08-24T09:22:58.484Z,26.00
2018-08-24T09:25:33.223Z,26.20
2018-08-24T09:28:07.572Z,26.20
2018-08-24T09:30:40.507Z,26.30
2018-08-24T09:33:09.380Z,26.40
2018-08-24T09:35:38.532Z,26.40
2018-08-24T09:38:07.455Z,26.50
2018-08-24T09:40:41.893Z,26.40
2018-08-24T09:43:17.096Z,26.40
2018-08-24T09:45:46.652Z,26.40
2018-08-24T09:48:21.956Z,26.50
2018-08-24T09:50:57.001Z,26.60
2018-08-24T09:54:30.111Z,26.60
2018-08-24T09:56:59.932Z,26.80
2018-08-24T09:59:28.848Z,26.80
2018-08-24T10:02:03.818Z,26.90
2018-08-24T10:04:38.595Z,27.10
2018-08-24T10:07:13.180Z,27.30
2018-08-24T10:09:42.050Z,27.30
2018-08-24T10:12:11.199Z,27.30
2018-08-24T10:14:40.069Z,27.30
2018-08-24T10:17:09.039Z,27.40
2018-08-24T10:19:37.891Z,27.50
2018-08-24T10:22:06.755Z,27.60
2018-08-24T10:24:35.649Z,27.60
2018-08-24T10:27:05.338Z,27.60
2018-08-24T10:29:34.507Z,27.60
2018-08-24T10:32:03.378Z,27.60
2018-08-24T10:34:32.971Z,27.60
2018-08-24T10:37:01.983Z,27.80
2018-08-24T10:39:30.831Z,28.00
2018-08-24T10:41:59.699Z,28.00
2018-08-24T10:44:28.539Z,28.10
2018-08-24T10:46:57.428Z,28.20
2018-08-24T10:49:26.294Z,28.30
2018-08-24T10:51:55.116Z,28.30
2018-08-24T10:54:24.015Z,28.40
2018-08-24T10:56:52.907Z,28.40
2018-08-24T10:59:21.768Z,28.60
2018-08-24T11:01:50.624Z,28.80
2018-08-24T11:04:19.478Z,28.80
2018-08-24T11:06:48.403Z,28.90
2018-08-24T11:09:17.220Z,28.80
2018-08-24T11:11:46.027Z,28.80
2018-08-24T11:14:14.898Z,28.90
2018-08-24T11:16:43.907Z,28.90
2018-08-24T11:19:13.000Z,29.00
2018-08-24T11:21:41.837Z,29.10
2018-08-24T11:24:10.678Z,29.10
2018-08-24T11:26:39.662Z,29.20
2018-08-24T11:29:08.488Z,29.20
2018-08-24T11:31:37.388Z,29.20
2018-08-24T11:34:06.306Z,29.10
2018-08-24T11:36:35.183Z,29.30
2018-08-24T11:39:05.740Z,29.40
2018-08-24T11:41:34.560Z,29.40
2018-08-24T11:44:03.547Z,29.40
2018-08-24T11:46:32.459Z,29.40
2018-08-24T11:49:01.383Z,29.30
2018-08-24T11:51:30.224Z,29.30
2018-08-24T11:53:59.376Z,29.30
2018-08-24T11:56:28.336Z,29.20
2018-08-24T11:58:57.160Z,29.10
2018-08-24T12:01:26.128Z,29.00
2018-08-24T12:03:54.963Z,28.70
2018-08-24T12:06:23.782Z,28.60
2018-08-24T12:08:52.659Z,28.40
2018-08-24T12:11:21.481Z,28.20
2018-08-24T12:13:50.323Z,28.10
2018-08-24T12:16:19.238Z,28.10
2018-08-24T12:18:48.115Z,28.00
2018-08-24T12:21:16.994Z,27.90
2018-08-24T12:23:45.754Z,27.70
2018-08-24T12:26:14.608Z,27.50
2018-08-24T12:28:43.548Z,27.40
2018-08-24T12:31:12.413Z,27.30
2018-08-24T12:33:41.246Z,27.20
2018-08-24T12:36:14.080Z,26.90
2018-08-24T12:38:43.280Z,26.90
2018-08-24T12:41:12.447Z,26.80
2018-08-24T12:43:41.276Z,26.60
2018-08-24T12:46:10.116Z,26.50
2018-08-24T12:48:38.973Z,26.30
2018-08-24T12:51:07.836Z,26.20
2018-08-24T12:53:37.037Z,26.10
2018-08-24T12:56:10.548Z,26.00
2018-08-24T12:58:39.415Z,26.00
2018-08-24T13:01:08.405Z,26.00
2018-08-24T13:03:37.244Z,25.90
2018-08-24T13:06:06.148Z,25.80
2018-08-24T13:08:35.170Z,25.90
2018-08-24T13:11:04.091Z,25.80
2018-08-24T13:13:32.966Z,25.80
2018-08-24T13:16:01.835Z,25.90
2018-08-24T13:18:30.916Z,26.00
2018-08-24T13:20:59.751Z,26.00
2018-08-24T13:23:28.562Z,26.10
2018-08-24T13:25:57.446Z,26.20
2018-08-24T13:28:26.275Z,26.20
2018-08-24T13:30:55.208Z,26.30
2018-08-24T13:33:24.072Z,26.30
2018-08-24T13:35:52.943Z,26.50
2018-08-24T13:38:21.809Z,26.60
2018-08-24T13:40:50.687Z,26.60
2018-08-24T13:43:19.699Z,26.70
2018-08-24T13:45:48.626Z,26.60
2018-08-24T13:48:17.529Z,26.60
2018-08-24T13:50:46.376Z,26.40
2018-08-24T13:53:15.269Z,26.30
2018-08-24T13:55:44.279Z,26.20
2018-08-24T13:58:13.213Z,26.10
2018-08-24T14:00:42.079Z,26.10
2018-08-24T14:03:10.919Z,26.10
2018-08-24T14:05:39.883Z,25.80
2018-08-24T14:08:08.770Z,25.50
2018-08-24T14:10:37.595Z,25.40
2018-08-24T14:13:06.490Z,25.40
2018-08-24T14:15:35.340Z,25.50
2018-08-24T14:18:04.300Z,25.60
2018-08-24T14:20:33.162Z,25.70
2018-08-24T14:23:05.038Z,25.60
2018-08-24T14:25:34.002Z,25.70
2018-08-24T14:28:02.820Z,25.70
2018-08-24T14:30:31.808Z,25.80
2018-08-24T14:33:00.640Z,25.80
2018-08-24T14:35:29.516Z,25.80
2018-08-24T14:37:58.471Z,25.70
2018-08-24T14:40:27.295Z,25.70
2018-08-24T14:42:56.183Z,25.70
2018-08-24T14:45:25.092Z,25.60
2018-08-24T14:47:54.012Z,25.70
2018-08-24T14:50:22.871Z,25.60
2018-08-24T14:52:51.696Z,25.70
2018-08-24T14:55:20.764Z,25.60
2018-08-24T14:57:49.611Z,25.60
2018-08-24T15:00:18.655Z,25.60
2018-08-24T15:02:47.496Z,25.50
2018-08-24T15:05:16.403Z,25.50
2018-08-24T15:07:45.299Z,25.40
2018-08-24T15:10:14.143Z,25.40
2018-08-24T15:12:43.078Z,25.30
2018-08-24T15:15:11.944Z,25.20
2018-08-24T15:17:40.796Z,25.10
2018-08-24T15:20:09.711Z,25.00
2018-08-24T15:22:38.535Z,25.00
2018-08-24T15:25:07.476Z,25.00
2018-08-24T15:27:36.299Z,24.90
2018-08-24T15:30:05.462Z,24.90
2018-08-24T15:32:34.309Z,24.90
2018-08-24T15:35:03.213Z,24.90
2018-08-24T15:37:32.080Z,24.90
2018-08-24T15:40:00.912Z,24.80
2018-08-24T15:42:29.758Z,24.80
2018-08-24T15:44:58.608Z,24.80
2018-08-24T15:47:27.568Z,24.70
2018-08-24T15:49:56.433Z,24.70
2018-08-24T15:52:25.395Z,24.60
2018-08-24T15:54:54.280Z,24.60
2018-08-24T15:57:23.258Z,24.50
2018-08-24T15:59:52.127Z,24.40
2018-08-24T16:02:20.996Z,24.40
2018-08-24T16:04:50.009Z,24.40
2018-08-24T16:07:18.998Z,24.30
2018-08-24T16:09:47.876Z,24.20
2018-08-24T16:12:16.730Z,24.20
2018-08-24T16:14:45.563Z,24.10
2018-08-24T16:17:14.481Z,24.00
2018-08-24T16:19:43.318Z,23.90
2018-08-24T16:22:12.207Z,23.90
2018-08-24T16:24:41.048Z,23.80
2018-08-24T16:27:14.608Z,23.80
2018-08-24T16:29:43.463Z,23.70
2018-08-24T16:32:12.366Z,23.70
2018-08-24T16:34:41.198Z,23.70
2018-08-24T16:37:10.118Z,23.60
2018-08-24T16:39:39.125Z,23.60
2018-08-24T16:42:08.063Z,23.50
2018-08-24T16:44:36.978Z,23.40
2018-08-24T16:47:05.865Z,23.30
2018-08-24T16:49:34.784Z,23.20
2018-08-24T16:52:03.900Z,23.20
2018-08-24T16:54:32.936Z,23.20
2018-08-24T16:57:01.891Z,23.00
2018-08-24T16:59:30.725Z,23.00
2018-08-24T17:01:59.530Z,23.00
2018-08-24T17:04:28.351Z,23.00
2018-08-24T17:06:57.250Z,23.00
2018-08-24T17:09:26.323Z,22.90
2018-08-24T17:11:55.135Z,22.90
2018-08-24T17:14:25.403Z,22.80
2018-08-24T17:16:54.287Z,22.80
2018-08-24T17:19:23.128Z,22.80
2018-08-24T17:21:52.312Z,22.80
2018-08-24T17:24:21.115Z,22.70
2018-08-24T17:26:50.055Z,22.70
2018-08-24T17:29:18.913Z,22.60
2018-08-24T17:31:47.755Z,22.60
2018-08-24T17:34:16.615Z,22.60
2018-08-24T17:36:45.526Z,22.50
2018-08-24T17:39:14.343Z,22.50
2018-08-24T17:41:43.196Z,22.40
2018-08-24T17:44:12.036Z,22.40
2018-08-24T17:46:40.972Z,22.40
2018-08-24T17:49:09.827Z,22.40
2018-08-24T17:51:38.756Z,22.40
2018-08-24T17:54:07.594Z,22.30
2018-08-24T17:56:36.523Z,22.30
2018-08-24T17:59:05.373Z,22.30
2018-08-24T18:01:34.337Z,22.20
2018-08-24T18:04:04.220Z,22.10
2018-08-24T18:06:33.190Z,22.10
2018-08-24T18:09:02.123Z,22.10
2018-08-24T18:11:30.972Z,22.10
2018-08-24T18:13:59.878Z,22.00
2018-08-24T18:16:28.795Z,22.00
2018-08-24T18:18:58.452Z,22.00
2018-08-24T18:21:27.863Z,22.00
2018-08-24T18:23:56.761Z,22.00
2018-08-24T18:26:25.703Z,22.00
2018-08-24T18:28:54.549Z,22.00
2018-08-24T18:31:23.383Z,21.90
2018-08-24T18:33:52.251Z,21.90
2018-08-24T18:36:21.140Z,21.90
2018-08-24T18:38:50.258Z,21.90
2018-08-24T18:41:19.108Z,21.90
2018-08-24T18:43:47.951Z,21.80
2018-08-24T18:46:16.911Z,21.80
2018-08-24T18:48:45.785Z,21.80
2018-08-24T18:51:14.696Z,21.80
2018-08-24T18:53:43.583Z,21.70
2018-08-24T18:56:12.459Z,21.70
2018-08-24T18:58:41.363Z,21.70
2018-08-24T19:01:10.230Z,21.70
2018-08-24T19:03:39.097Z,21.70
2018-08-24T19:06:08.029Z,21.60
2018-08-24T19:08:37.512Z,21.60
2018-08-24T19:11:12.937Z,21.60
2018-08-24T19:13:41.905Z,21.60
2018-08-24T19:16:10.759Z,21.60
2018-08-24T19:18:45.146Z,21.60
2018-08-24T19:21:19.951Z,21.60
2018-08-24T19:23:48.804Z,21.50
2018-08-24T19:26:17.672Z,21.60
2018-08-24T19:28:52.180Z,21.50
2018-08-24T19:31:21.116Z,21.50
2018-08-24T19:33:50.287Z,21.50
2018-08-24T19:36:19.200Z,21.50
2018-08-24T19:38:48.063Z,21.40
2018-08-24T19:41:22.906Z,21.40
2018-08-24T19:43:51.794Z,21.40
2018-08-24T19:46:20.703Z,21.40
2018-08-24T19:48:55.074Z,21.40
2018-08-24T19:51:24.118Z,21.40
2018-08-24T19:53:52.945Z,21.40
2018-08-24T19:56:21.873Z,21.40
2018-08-24T19:59:05.191Z,21.40
2018-08-24T20:01:34.728Z,21.40
2018-08-24T20:04:04.989Z,21.30
2018-08-24T20:06:39.517Z,21.30
2018-08-24T20:09:15.712Z,21.30
2018-08-24T20:11:47.648Z,21.20
2018-08-24T20:14:21.011Z,21.20
2018-08-24T20:16:55.452Z,21.20
2018-08-24T20:19:24.646Z,21.20
2018-08-24T20:21:53.505Z,21.20
2018-08-24T20:24:22.533Z,21.20
2018-08-24T20:26:51.384Z,21.20
2018-08-24T20:29:20.582Z,21.20
2018-08-24T20:31:49.451Z,21.20
2018-08-24T20:34:18.304Z,21.20
2018-08-24T20:36:47.242Z,21.20
2018-08-24T20:39:16.072Z,21.20
2018-08-24T20:41:44.936Z,21.20
2018-08-24T20:44:13.848Z,21.20
2018-08-24T20:46:42.691Z,21.10
2018-08-24T20:49:11.539Z,21.10
2018-08-24T20:51:40.342Z,21.10
2018-08-24T20:54:09.209Z,21.10
2018-08-24T20:56:38.396Z,21.10
2018-08-24T20:59:07.222Z,21.10
2018-08-24T21:01:36.198Z,21.00
2018-08-24T21:04:05.294Z,21.00
2018-08-24T21:06:34.122Z,21.00
2018-08-24T21:09:04.287Z,21.00
2018-08-24T21:11:33.135Z,21.10
2018-08-24T21:14:01.987Z,21.10
2018-08-24T21:16:30.915Z,21.00
2018-08-24T21:18:59.751Z,21.00
2018-08-24T21:21:28.575Z,21.00
2018-08-24T21:23:57.418Z,21.00
2018-08-24T21:26:26.272Z,21.00
2018-08-24T21:28:55.133Z,21.00
2018-08-24T21:31:23.971Z,21.00
2018-08-24T21:33:52.807Z,21.00
2018-08-24T21:36:21.758Z,21.00
2018-08-24T21:38:50.601Z,21.00
2018-08-24T21:41:20.207Z,21.00
2018-08-24T21:43:49.038Z,21.00
2018-08-24T21:46:18.297Z,21.00
2018-08-24T21:48:47.143Z,21.00
2018-08-24T21:51:15.972Z,21.00
2018-08-24T21:53:44.815Z,21.00
2018-08-24T21:56:13.672Z,21.10
2018-08-24T21:58:42.543Z,21.00
2018-08-24T22:01:11.733Z,21.00
2018-08-24T22:03:40.561Z,21.00
2018-08-24T22:06:09.459Z,21.00
2018-08-24T22:08:38.314Z,21.00
2018-08-24T22:11:07.238Z,21.00
2018-08-24T22:13:36.079Z,21.00
2018-08-24T22:16:05.035Z,21.00
2018-08-24T22:18:33.891Z,20.90
2018-08-24T22:21:02.735Z,20.90
2018-08-24T22:23:31.583Z,21.00
2018-08-24T22:26:00.456Z,20.90
2018-08-24T22:28:29.315Z,20.90
2018-08-24T22:30:58.147Z,20.90
2018-08-24T22:33:26.951Z,20.90
2018-08-24T22:35:55.863Z,20.90
2018-08-24T22:38:24.666Z,20.90
2018-08-24T22:40:53.470Z,20.90
2018-08-24T22:43:27.960Z,20.80
2018-08-24T22:45:56.946Z,20.90
2018-08-24T22:48:25.763Z,20.90
2018-08-24T22:50:54.606Z,20.90
2018-08-24T22:53:23.415Z,20.90
2018-08-24T22:55:52.307Z,20.90
2018-08-24T22:58:21.158Z,20.90
2018-08-24T23:00:50.003Z,21.00
2018-08-24T23:03:19.170Z,21.00
2018-08-24T23:05:48.031Z,21.00
2018-08-24T23:08:16.922Z,21.00
2018-08-24T23:10:45.772Z,21.00
2018-08-24T23:13:14.626Z,21.00
2018-08-24T23:15:43.514Z,20.90
2018-08-24T23:18:12.327Z,20.90
2018-08-24T23:20:41.256Z,20.90
2018-08-24T23:23:10.090Z,20.90
2018-08-24T23:25:38.943Z,20.90
2018-08-24T23:28:07.794Z,20.90
2018-08-24T23:30:36.632Z,20.90
2018-08-24T23:33:05.552Z,20.90
2018-08-24T23:35:34.415Z,21.00
2018-08-24T23:38:03.232Z,20.90
2018-08-24T23:40:32.055Z,20.90
2018-08-24T23:43:00.853Z,20.90
2018-08-24T23:45:29.763Z,20.80
2018-08-24T23:47:58.587Z,20.80
2018-08-24T23:50:27.478Z,20.80
2018-08-24T23:52:56.327Z,20.70
2018-08-24T23:55:25.232Z,20.70
2018-08-24T23:57:54.073Z,20.70
